sensor_id;sensor_type;location;lat;lon;timestamp;pressure;altitude;pressure_sealevel;temperature;humidity
79791;BME280;69278;52.220;5.172;2023-06-14T00:02:20;101549.34;;;22.75;42.92
79791;BME280;69278;52.220;5.172;2023-06-14T00:04:47;101562.38;;;22.78;42.65
79791;BME280;69278;52.220;5.172;2023-06-14T00:07:14;101550.78;;;22.71;43.24
79791;BME280;69278;52.220;5.172;2023-06-14T00:09:43;101560.91;;;22.76;43.05
79791;BME280;69278;52.220;5.172;2023-06-14T00:12:09;101557.59;;;22.74;42.34
79791;BME280;69278;52.220;5.172;2023-06-14T00:14:36;101556.50;;;22.62;42.10
79791;BME280;69278;52.220;5.172;2023-06-14T00:17:02;101563.34;;;22.64;42.83
79791;BME280;69278;52.220;5.172;2023-06-14T00:19:30;101563.34;;;22.64;42.67
79791;BME280;69278;52.220;5.172;2023-06-14T00:21:59;101560.81;;;22.63;41.84
79791;BME280;69278;52.220;5.172;2023-06-14T00:24:26;101560.38;;;22.59;42.14
79791;BME280;69278;52.220;5.172;2023-06-14T00:26:52;101560.91;;;22.48;41.93
79791;BME280;69278;52.220;5.172;2023-06-14T00:29:19;101566.47;;;22.46;41.30
79791;BME280;69278;52.220;5.172;2023-06-14T00:31:45;101561.16;;;22.53;41.70
79791;BME280;69278;52.220;5.172;2023-06-14T00:34:12;101554.75;;;22.54;41.83
79791;BME280;69278;52.220;5.172;2023-06-14T00:36:38;101558.06;;;22.56;41.28
79791;BME280;69278;52.220;5.172;2023-06-14T00:39:05;101556.41;;;22.55;41.63
79791;BME280;69278;52.220;5.172;2023-06-14T00:41:31;101556.41;;;22.55;41.29
79791;BME280;69278;52.220;5.172;2023-06-14T00:43:58;101561.56;;;22.50;41.26
79791;BME280;69278;52.220;5.172;2023-06-14T00:46:26;101562.78;;;22.48;41.45
79791;BME280;69278;52.220;5.172;2023-06-14T00:48:53;101557.81;;;22.44;41.47
79791;BME280;69278;52.220;5.172;2023-06-14T00:51:22;101556.34;;;22.42;41.46
79791;BME280;69278;52.220;5.172;2023-06-14T00:53:48;101559.41;;;22.39;41.48
79791;BME280;69278;52.220;5.172;2023-06-14T00:56:15;101563.75;;;22.40;42.01
79791;BME280;69278;52.220;5.172;2023-06-14T00:58:42;101553.84;;;22.40;40.71
79791;BME280;69278;52.220;5.172;2023-06-14T01:01:10;101565.84;;;22.44;40.80
79791;BME280;69278;52.220;5.172;2023-06-14T01:03:36;101553.19;;;22.38;40.80
79791;BME280;69278;52.220;5.172;2023-06-14T01:06:13;101556.31;;;22.35;41.11
79791;BME280;69278;52.220;5.172;2023-06-14T01:11:26;101560.19;;;22.05;40.77
79791;BME280;69278;52.220;5.172;2023-06-14T01:13:55;101559.28;;;21.98;40.44
79791;BME280;69278;52.220;5.172;2023-06-14T01:16:23;101554.13;;;21.97;41.59
79791;BME280;69278;52.220;5.172;2023-06-14T01:18:52;101546.25;;;21.95;40.76
79791;BME280;69278;52.220;5.172;2023-06-14T01:21:24;101516.19;;;21.78;41.42
79791;BME280;69278;52.220;5.172;2023-06-14T01:23:54;101554.84;;;22.12;40.56
79791;BME280;69278;52.220;5.172;2023-06-14T01:26:22;101555.75;;;22.19;41.23
79791;BME280;69278;52.220;5.172;2023-06-14T01:28:49;101555.75;;;22.19;41.34
79791;BME280;69278;52.220;5.172;2023-06-14T01:31:20;101556.16;;;22.16;41.48
79791;BME280;69278;52.220;5.172;2023-06-14T01:33:49;101557.75;;;22.10;41.71
79791;BME280;69278;52.220;5.172;2023-06-14T01:36:19;101549.69;;;22.10;41.40
79791;BME280;69278;52.220;5.172;2023-06-14T01:38:47;101552.19;;;22.12;41.06
79791;BME280;69278;52.220;5.172;2023-06-14T01:41:16;101552.75;;;22.07;40.49
79791;BME280;69278;52.220;5.172;2023-06-14T01:43:44;101559.16;;;22.06;40.86
79791;BME280;69278;52.220;5.172;2023-06-14T01:46:13;101561.84;;;22.06;41.26
79791;BME280;69278;52.220;5.172;2023-06-14T01:48:41;101553.34;;;22.03;40.79
79791;BME280;69278;52.220;5.172;2023-06-14T01:51:07;101558.47;;;21.98;40.81
79791;BME280;69278;52.220;5.172;2023-06-14T01:53:34;101558.66;;;21.96;41.44
79791;BME280;69278;52.220;5.172;2023-06-14T01:56:01;101556.34;;;21.93;41.52
79791;BME280;69278;52.220;5.172;2023-06-14T01:58:27;101536.41;;;21.81;41.75
79791;BME280;69278;52.220;5.172;2023-06-14T02:00:54;101555.16;;;21.96;40.43
79791;BME280;69278;52.220;5.172;2023-06-14T02:03:22;101554.75;;;21.99;40.34
79791;BME280;69278;52.220;5.172;2023-06-14T02:05:49;101558.22;;;21.93;41.44
79791;BME280;69278;52.220;5.172;2023-06-14T02:08:16;101547.22;;;21.88;40.92
79791;BME280;69278;52.220;5.172;2023-06-14T02:10:42;101556.03;;;21.81;40.88
79791;BME280;69278;52.220;5.172;2023-06-14T02:13:09;101547.47;;;21.71;41.07
79791;BME280;69278;52.220;5.172;2023-06-14T02:15:36;101558.66;;;21.75;41.46
79791;BME280;69278;52.220;5.172;2023-06-14T02:18:03;101564.06;;;21.81;41.67
79791;BME280;69278;52.220;5.172;2023-06-14T02:20:30;101550.41;;;21.76;41.48
79791;BME280;69278;52.220;5.172;2023-06-14T02:22:57;101545.41;;;21.73;41.11
79791;BME280;69278;52.220;5.172;2023-06-14T02:25:24;101545.78;;;21.70;41.03
79791;BME280;69278;52.220;5.172;2023-06-14T02:27:50;101547.47;;;21.71;41.27
79791;BME280;69278;52.220;5.172;2023-06-14T02:30:16;101549.31;;;21.71;40.87
79791;BME280;69278;52.220;5.172;2023-06-14T02:32:43;101557.66;;;21.61;40.91
79791;BME280;69278;52.220;5.172;2023-06-14T02:35:10;101561.28;;;21.54;40.58
79791;BME280;69278;52.220;5.172;2023-06-14T02:37:36;101555.03;;;21.47;41.02
79791;BME280;69278;52.220;5.172;2023-06-14T02:40:04;101548.25;;;21.30;41.71
79791;BME280;69278;52.220;5.172;2023-06-14T02:42:32;101556.13;;;21.31;42.23
79791;BME280;69278;52.220;5.172;2023-06-14T02:44:58;101556.13;;;21.31;41.03
79791;BME280;69278;52.220;5.172;2023-06-14T02:47:24;101555.00;;;21.26;41.50
79791;BME280;69278;52.220;5.172;2023-06-14T02:49:52;101551.50;;;21.25;40.63
79791;BME280;69278;52.220;5.172;2023-06-14T02:52:18;101559.16;;;21.28;41.38
79791;BME280;69278;52.220;5.172;2023-06-14T02:54:45;101560.75;;;21.23;41.70
79791;BME280;69278;52.220;5.172;2023-06-14T02:57:13;101558.53;;;21.26;41.15
79791;BME280;69278;52.220;5.172;2023-06-14T02:59:40;101558.69;;;21.25;41.40
79791;BME280;69278;52.220;5.172;2023-06-14T03:02:06;101558.06;;;21.23;41.37
79791;BME280;69278;52.220;5.172;2023-06-14T03:04:32;101565.66;;;21.19;41.85
79791;BME280;69278;52.220;5.172;2023-06-14T03:07:04;101542.66;;;21.10;40.63
79791;BME280;69278;52.220;5.172;2023-06-14T03:09:36;101567.94;;;21.22;42.01
79791;BME280;69278;52.220;5.172;2023-06-14T03:12:06;101525.09;;;20.93;40.96
79791;BME280;69278;52.220;5.172;2023-06-14T03:14:33;101574.44;;;21.13;41.15
79791;BME280;69278;52.220;5.172;2023-06-14T03:17:01;101576.75;;;21.16;41.92
79791;BME280;69278;52.220;5.172;2023-06-14T03:19:28;101582.47;;;21.13;41.08
79791;BME280;69278;52.220;5.172;2023-06-14T03:21:55;101551.72;;;20.94;41.88
79791;BME280;69278;52.220;5.172;2023-06-14T03:24:26;101573.31;;;21.07;41.21
79791;BME280;69278;52.220;5.172;2023-06-14T03:26:58;101589.59;;;21.06;41.48
79791;BME280;69278;52.220;5.172;2023-06-14T03:29:24;101581.34;;;21.07;41.61
79791;BME280;69278;52.220;5.172;2023-06-14T03:31:59;101575.44;;;20.97;42.24
79791;BME280;69278;52.220;5.172;2023-06-14T03:34:26;101581.56;;;21.06;41.81
79791;BME280;69278;52.220;5.172;2023-06-14T03:36:52;101586.56;;;21.09;41.54
79791;BME280;69278;52.220;5.172;2023-06-14T03:39:19;101547.09;;;20.74;41.63
79791;BME280;69278;52.220;5.172;2023-06-14T03:41:46;101595.13;;;20.90;41.54
79791;BME280;69278;52.220;5.172;2023-06-14T03:44:17;101587.72;;;20.77;42.44
79791;BME280;69278;52.220;5.172;2023-06-14T03:46:45;101608.03;;;20.86;41.68
79791;BME280;69278;52.220;5.172;2023-06-14T03:49:12;101600.19;;;20.85;42.18
79791;BME280;69278;52.220;5.172;2023-06-14T03:51:39;101607.88;;;20.88;42.49
79791;BME280;69278;52.220;5.172;2023-06-14T03:54:06;101612.19;;;20.89;42.23
79791;BME280;69278;52.220;5.172;2023-06-14T03:56:53;101603.88;;;20.84;42.21
79791;BME280;69278;52.220;5.172;2023-06-14T03:59:19;101608.50;;;20.75;41.94
79791;BME280;69278;52.220;5.172;2023-06-14T04:01:46;101611.81;;;20.77;42.19
79791;BME280;69278;52.220;5.172;2023-06-14T04:04:13;101617.81;;;20.79;42.54
79791;BME280;69278;52.220;5.172;2023-06-14T04:06:39;101621.88;;;20.75;42.53
79791;BME280;69278;52.220;5.172;2023-06-14T04:09:07;101621.34;;;20.80;42.54
79791;BME280;69278;52.220;5.172;2023-06-14T04:11:34;101634.38;;;20.83;42.53
79791;BME280;69278;52.220;5.172;2023-06-14T04:14:01;101636.13;;;20.76;42.18
79791;BME280;69278;52.220;5.172;2023-06-14T04:16:28;101632.13;;;20.72;42.56
79791;BME280;69278;52.220;5.172;2023-06-14T04:18:55;101631.84;;;20.67;42.47
79791;BME280;69278;52.220;5.172;2023-06-14T04:21:22;101638.66;;;20.69;42.42
79791;BME280;69278;52.220;5.172;2023-06-14T04:23:50;101641.91;;;20.65;42.76
79791;BME280;69278;52.220;5.172;2023-06-14T04:26:19;101632.47;;;20.69;42.73
79791;BME280;69278;52.220;5.172;2023-06-14T04:28:48;101626.69;;;20.65;42.80
79791;BME280;69278;52.220;5.172;2023-06-14T04:31:15;101630.06;;;20.59;42.89
79791;BME280;69278;52.220;5.172;2023-06-14T04:33:42;101641.91;;;20.65;42.25
79791;BME280;69278;52.220;5.172;2023-06-14T04:36:10;101636.75;;;20.63;43.22
79791;BME280;69278;52.220;5.172;2023-06-14T04:38:39;101632.38;;;20.62;42.89
79791;BME280;69278;52.220;5.172;2023-06-14T04:41:07;101634.78;;;20.57;43.16
79791;BME280;69278;52.220;5.172;2023-06-14T04:43:38;101643.28;;;20.61;43.03
79791;BME280;69278;52.220;5.172;2023-06-14T04:46:05;101648.34;;;20.56;43.57
79791;BME280;69278;52.220;5.172;2023-06-14T04:48:32;101650.84;;;20.57;43.39
79791;BME280;69278;52.220;5.172;2023-06-14T04:50:58;101651.72;;;20.49;44.05
79791;BME280;69278;52.220;5.172;2023-06-14T04:53:25;101657.88;;;20.58;43.88
79791;BME280;69278;52.220;5.172;2023-06-14T04:55:55;101660.34;;;20.60;43.19
79791;BME280;69278;52.220;5.172;2023-06-14T04:58:21;101642.72;;;20.50;43.60
79791;BME280;69278;52.220;5.172;2023-06-14T05:00:48;101653.69;;;20.56;44.04
79791;BME280;69278;52.220;5.172;2023-06-14T05:03:14;101646.13;;;20.59;44.07
79791;BME280;69278;52.220;5.172;2023-06-14T05:05:41;101650.75;;;20.65;43.67
79791;BME280;69278;52.220;5.172;2023-06-14T05:08:08;101636.50;;;20.50;43.31
79791;BME280;69278;52.220;5.172;2023-06-14T05:10:35;101655.00;;;20.60;44.02
79791;BME280;69278;52.220;5.172;2023-06-14T05:13:02;101653.50;;;20.57;43.34
79791;BME280;69278;52.220;5.172;2023-06-14T05:15:29;101650.53;;;20.52;43.95
79791;BME280;69278;52.220;5.172;2023-06-14T05:17:56;101640.44;;;20.39;43.36
79791;BME280;69278;52.220;5.172;2023-06-14T05:20:24;101644.84;;;20.32;43.74
79791;BME280;69278;52.220;5.172;2023-06-14T05:22:52;101657.59;;;20.30;43.95
79791;BME280;69278;52.220;5.172;2023-06-14T05:25:20;101651.28;;;20.23;44.34
79791;BME280;69278;52.220;5.172;2023-06-14T05:27:47;101657.13;;;20.27;44.48
79791;BME280;69278;52.220;5.172;2023-06-14T05:30:15;101663.88;;;20.37;44.63
79791;BME280;69278;52.220;5.172;2023-06-14T05:32:41;101664.78;;;20.30;43.90
79791;BME280;69278;52.220;5.172;2023-06-14T05:35:08;101663.34;;;20.19;44.27
79791;BME280;69278;52.220;5.172;2023-06-14T05:37:35;101668.03;;;19.95;44.36
79791;BME280;69278;52.220;5.172;2023-06-14T05:40:02;101670.13;;;19.76;44.70
79791;BME280;69278;52.220;5.172;2023-06-14T05:42:32;101668.56;;;19.59;45.19
79791;BME280;69278;52.220;5.172;2023-06-14T05:44:58;101670.44;;;19.51;45.53
79791;BME280;69278;52.220;5.172;2023-06-14T05:47:26;101672.47;;;19.49;45.56
79791;BME280;69278;52.220;5.172;2023-06-14T05:49:54;101657.16;;;19.27;45.65
79791;BME280;69278;52.220;5.172;2023-06-14T05:52:21;101676.16;;;19.32;45.84
79791;BME280;69278;52.220;5.172;2023-06-14T05:54:48;101677.69;;;19.26;46.24
79791;BME280;69278;52.220;5.172;2023-06-14T05:57:14;101686.88;;;19.23;46.41
79791;BME280;69278;52.220;5.172;2023-06-14T05:59:41;101660.16;;;19.23;46.93
79791;BME280;69278;52.220;5.172;2023-06-14T06:02:07;101678.94;;;19.54;47.07
79791;BME280;69278;52.220;5.172;2023-06-14T06:04:34;101681.31;;;19.80;46.66
79791;BME280;69278;52.220;5.172;2023-06-14T06:07:01;101691.84;;;20.04;46.60
79791;BME280;69278;52.220;5.172;2023-06-14T06:09:27;101686.09;;;20.15;45.70
79791;BME280;69278;52.220;5.172;2023-06-14T06:11:54;101683.56;;;20.22;45.79
79791;BME280;69278;52.220;5.172;2023-06-14T06:14:21;101687.22;;;20.29;45.13
79791;BME280;69278;52.220;5.172;2023-06-14T06:16:47;101696.72;;;20.31;45.41
79791;BME280;69278;52.220;5.172;2023-06-14T06:19:14;101684.47;;;20.37;45.09
79791;BME280;69278;52.220;5.172;2023-06-14T06:21:40;101692.06;;;20.48;44.71
79791;BME280;69278;52.220;5.172;2023-06-14T06:24:07;101695.50;;;20.57;44.95
79791;BME280;69278;52.220;5.172;2023-06-14T06:26:34;101681.47;;;20.55;44.65
79791;BME280;69278;52.220;5.172;2023-06-14T06:29:00;101688.13;;;20.59;44.34
79791;BME280;69278;52.220;5.172;2023-06-14T06:31:27;101693.00;;;20.55;44.27
79791;BME280;69278;52.220;5.172;2023-06-14T06:33:54;101695.97;;;20.60;44.47
79791;BME280;69278;52.220;5.172;2023-06-14T06:36:21;101698.34;;;20.55;44.42
79791;BME280;69278;52.220;5.172;2023-06-14T06:38:48;101698.84;;;20.59;44.53
79791;BME280;69278;52.220;5.172;2023-06-14T06:41:14;101700.25;;;20.69;44.68
79791;BME280;69278;52.220;5.172;2023-06-14T06:43:41;101701.56;;;20.73;44.06
79791;BME280;69278;52.220;5.172;2023-06-14T06:46:08;101702.09;;;20.83;44.40
79791;BME280;69278;52.220;5.172;2023-06-14T06:48:34;101711.25;;;20.89;44.03
79791;BME280;69278;52.220;5.172;2023-06-14T06:51:01;101711.25;;;20.89;43.62
79791;BME280;69278;52.220;5.172;2023-06-14T06:53:27;101704.06;;;20.89;43.72
79791;BME280;69278;52.220;5.172;2023-06-14T06:56:07;101713.50;;;20.85;43.53
79791;BME280;69278;52.220;5.172;2023-06-14T06:58:33;101715.97;;;20.87;43.85
79791;BME280;69278;52.220;5.172;2023-06-14T07:01:00;101717.56;;;20.96;43.94
79791;BME280;69278;52.220;5.172;2023-06-14T07:03:26;101719.53;;;21.02;43.60
79791;BME280;69278;52.220;5.172;2023-06-14T07:05:53;101722.31;;;21.08;43.43
79791;BME280;69278;52.220;5.172;2023-06-14T07:08:19;101717.44;;;21.12;43.03
79791;BME280;69278;52.220;5.172;2023-06-14T07:10:46;101719.56;;;21.17;43.02
79791;BME280;69278;52.220;5.172;2023-06-14T07:13:12;101724.00;;;21.24;43.24
79791;BME280;69278;52.220;5.172;2023-06-14T07:15:40;101724.16;;;21.23;42.80
79791;BME280;69278;52.220;5.172;2023-06-14T07:18:06;101725.94;;;21.30;42.64
79791;BME280;69278;52.220;5.172;2023-06-14T07:20:34;101717.41;;;21.27;42.17
79791;BME280;69278;52.220;5.172;2023-06-14T07:23:01;101730.56;;;21.36;42.31
79791;BME280;69278;52.220;5.172;2023-06-14T07:25:27;101734.16;;;21.43;42.37
79791;BME280;69278;52.220;5.172;2023-06-14T07:27:54;101735.44;;;21.47;41.56
79791;BME280;69278;52.220;5.172;2023-06-14T07:30:21;101745.41;;;21.53;42.03
79791;BME280;69278;52.220;5.172;2023-06-14T07:32:47;101694.78;;;21.29;41.64
79791;BME280;69278;52.220;5.172;2023-06-14T07:35:14;101748.84;;;21.62;41.09
79791;BME280;69278;52.220;5.172;2023-06-14T07:37:41;101735.88;;;21.65;40.58
79791;BME280;69278;52.220;5.172;2023-06-14T07:40:08;101742.91;;;21.66;40.60
79791;BME280;69278;52.220;5.172;2023-06-14T07:42:34;101736.00;;;21.72;40.39
79791;BME280;69278;52.220;5.172;2023-06-14T07:45:03;101749.56;;;21.85;40.91
79791;BME280;69278;52.220;5.172;2023-06-14T07:47:30;101745.78;;;21.94;40.12
79791;BME280;69278;52.220;5.172;2023-06-14T07:49:56;101742.34;;;22.00;40.20
79791;BME280;69278;52.220;5.172;2023-06-14T07:52:23;101744.06;;;22.08;40.10
79791;BME280;69278;52.220;5.172;2023-06-14T07:54:50;101746.00;;;22.14;41.25
79791;BME280;69278;52.220;5.172;2023-06-14T07:57:16;101744.88;;;22.23;39.12
79791;BME280;69278;52.220;5.172;2023-06-14T07:59:43;101746.13;;;22.27;39.26
79791;BME280;69278;52.220;5.172;2023-06-14T08:02:09;101747.88;;;22.34;39.26
79791;BME280;69278;52.220;5.172;2023-06-14T08:04:36;101759.50;;;22.41;38.89
79791;BME280;69278;52.220;5.172;2023-06-14T08:07:02;101763.66;;;22.44;38.68
79791;BME280;69278;52.220;5.172;2023-06-14T08:09:32;101765.59;;;22.50;38.26
79791;BME280;69278;52.220;5.172;2023-06-14T08:11:59;101758.84;;;22.61;37.85
79791;BME280;69278;52.220;5.172;2023-06-14T08:14:26;101755.00;;;22.63;37.09
79791;BME280;69278;52.220;5.172;2023-06-14T08:17:00;101758.94;;;22.67;37.59
79791;BME280;69278;52.220;5.172;2023-06-14T08:19:27;101758.81;;;22.75;37.35
79791;BME280;69278;52.220;5.172;2023-06-14T08:21:53;101742.06;;;22.73;37.41
79791;BME280;69278;52.220;5.172;2023-06-14T08:24:22;101751.00;;;22.80;36.62
79791;BME280;69278;52.220;5.172;2023-06-14T08:26:53;101752.53;;;22.89;37.64
79791;BME280;69278;52.220;5.172;2023-06-14T08:29:20;101744.94;;;22.93;36.61
79791;BME280;69278;52.220;5.172;2023-06-14T08:31:47;101715.72;;;22.83;36.25
79791;BME280;69278;52.220;5.172;2023-06-14T08:34:14;101751.06;;;23.15;34.80
79791;BME280;69278;52.220;5.172;2023-06-14T08:36:41;101748.63;;;23.20;34.53
79791;BME280;69278;52.220;5.172;2023-06-14T08:39:08;101742.44;;;23.26;34.72
79791;BME280;69278;52.220;5.172;2023-06-14T08:41:35;101718.81;;;23.15;34.73
79791;BME280;69278;52.220;5.172;2023-06-14T08:44:02;101745.00;;;23.34;34.12
79791;BME280;69278;52.220;5.172;2023-06-14T08:46:32;101759.38;;;23.47;33.99
79791;BME280;69278;52.220;5.172;2023-06-14T08:49:01;101705.25;;;23.23;34.09
79791;BME280;69278;52.220;5.172;2023-06-14T08:51:30;101754.06;;;23.60;33.93
79791;BME280;69278;52.220;5.172;2023-06-14T08:54:00;101739.78;;;23.60;33.62
79791;BME280;69278;52.220;5.172;2023-06-14T08:56:28;101711.25;;;23.59;33.57
79791;BME280;69278;52.220;5.172;2023-06-14T08:58:57;101745.03;;;23.81;33.95
79791;BME280;69278;52.220;5.172;2023-06-14T09:01:27;101752.34;;;23.94;33.62
79791;BME280;69278;52.220;5.172;2023-06-14T09:03:54;101759.41;;;24.01;33.57
79791;BME280;69278;52.220;5.172;2023-06-14T09:06:24;101725.22;;;23.89;32.49
79791;BME280;69278;52.220;5.172;2023-06-14T09:08:51;101750.38;;;24.15;32.87
79791;BME280;69278;52.220;5.172;2023-06-14T09:11:18;101757.44;;;24.23;32.22
79791;BME280;69278;52.220;5.172;2023-06-14T09:13:46;101758.72;;;24.33;32.11
79791;BME280;69278;52.220;5.172;2023-06-14T09:16:13;101717.47;;;24.20;31.85
79791;BME280;69278;52.220;5.172;2023-06-14T09:18:44;101765.38;;;24.51;31.28
79791;BME280;69278;52.220;5.172;2023-06-14T09:21:17;101752.53;;;24.53;31.16
79791;BME280;69278;52.220;5.172;2023-06-14T09:23:45;101755.03;;;24.61;31.39
79791;BME280;69278;52.220;5.172;2023-06-14T09:26:15;101763.09;;;24.67;31.69
79791;BME280;69278;52.220;5.172;2023-06-14T09:28:43;101744.66;;;24.71;30.98
79791;BME280;69278;52.220;5.172;2023-06-14T09:31:15;101767.72;;;24.86;30.84
79791;BME280;69278;52.220;5.172;2023-06-14T09:33:42;101762.94;;;24.88;30.11
79791;BME280;69278;52.220;5.172;2023-06-14T09:36:20;101752.13;;;24.95;30.41
79791;BME280;69278;52.220;5.172;2023-06-14T09:38:57;101770.59;;;25.11;29.67
79791;BME280;69278;52.220;5.172;2023-06-14T09:41:31;101768.50;;;25.20;29.82
79791;BME280;69278;52.220;5.172;2023-06-14T09:43:59;101759.56;;;25.19;29.01
79791;BME280;69278;52.220;5.172;2023-06-14T09:46:34;101764.75;;;25.27;29.48
79791;BME280;69278;52.220;5.172;2023-06-14T09:49:02;101766.63;;;25.33;29.44
79791;BME280;69278;52.220;5.172;2023-06-14T09:51:30;101754.59;;;25.29;28.91
79791;BME280;69278;52.220;5.172;2023-06-14T09:54:02;101772.00;;;25.46;28.86
79791;BME280;69278;52.220;5.172;2023-06-14T09:56:35;101773.66;;;25.54;29.15
79791;BME280;69278;52.220;5.172;2023-06-14T09:59:05;101770.53;;;25.57;28.98
79791;BME280;69278;52.220;5.172;2023-06-14T10:01:35;101752.69;;;25.62;29.28
79791;BME280;69278;52.220;5.172;2023-06-14T10:04:04;101766.34;;;25.74;28.98
79791;BME280;69278;52.220;5.172;2023-06-14T10:06:37;101774.19;;;25.76;28.90
79791;BME280;69278;52.220;5.172;2023-06-14T10:09:08;101765.47;;;25.80;29.07
79791;BME280;69278;52.220;5.172;2023-06-14T10:11:36;101754.03;;;25.85;28.78
79791;BME280;69278;52.220;5.172;2023-06-14T10:14:05;101759.47;;;25.78;28.28
79791;BME280;69278;52.220;5.172;2023-06-14T10:16:39;101767.94;;;25.88;28.05
79791;BME280;69278;52.220;5.172;2023-06-14T10:19:25;101758.13;;;26.00;27.84
79791;BME280;69278;52.220;5.172;2023-06-14T10:22:04;101763.94;;;26.04;27.17
79791;BME280;69278;52.220;5.172;2023-06-14T10:24:35;101771.00;;;25.98;27.56
79791;BME280;69278;52.220;5.172;2023-06-14T10:27:06;101763.47;;;26.07;27.71
79791;BME280;69278;52.220;5.172;2023-06-14T10:32:25;101760.31;;;26.23;27.99
79791;BME280;69278;52.220;5.172;2023-06-14T10:35:00;101757.81;;;26.28;26.99
79791;BME280;69278;52.220;5.172;2023-06-14T10:37:27;101764.41;;;26.32;27.64
79791;BME280;69278;52.220;5.172;2023-06-14T10:39:53;101756.69;;;26.35;27.17
79791;BME280;69278;52.220;5.172;2023-06-14T10:42:20;101752.47;;;26.46;27.57
79791;BME280;69278;52.220;5.172;2023-06-14T10:44:50;101748.06;;;26.52;26.76
79791;BME280;69278;52.220;5.172;2023-06-14T10:47:35;101760.75;;;26.51;26.80
79791;BME280;69278;52.220;5.172;2023-06-14T10:50:05;101746.63;;;26.49;26.57
79791;BME280;69278;52.220;5.172;2023-06-14T10:52:34;101746.22;;;26.46;26.42
79791;BME280;69278;52.220;5.172;2023-06-14T10:55:15;101749.03;;;26.64;26.89
79791;BME280;69278;52.220;5.172;2023-06-14T10:57:54;101762.91;;;26.67;26.28
79791;BME280;69278;52.220;5.172;2023-06-14T11:00:27;101710.16;;;26.33;26.12
79791;BME280;69278;52.220;5.172;2023-06-14T11:05:56;101738.41;;;26.62;26.73
79791;BME280;69278;52.220;5.172;2023-06-14T11:08:33;101760.88;;;26.63;26.90
79791;BME280;69278;52.220;5.172;2023-06-14T11:11:08;101749.38;;;26.74;27.22
79791;BME280;69278;52.220;5.172;2023-06-14T11:13:39;101744.28;;;26.84;26.03
79791;BME280;69278;52.220;5.172;2023-06-14T11:16:16;101740.06;;;26.94;26.40
79791;BME280;69278;52.220;5.172;2023-06-14T11:18:44;101753.00;;;27.11;25.61
79791;BME280;69278;52.220;5.172;2023-06-14T11:21:11;101753.91;;;27.23;25.42
79791;BME280;69278;52.220;5.172;2023-06-14T11:23:41;101742.22;;;27.29;25.48
79791;BME280;69278;52.220;5.172;2023-06-14T11:26:08;101731.72;;;27.39;26.19
79791;BME280;69278;52.220;5.172;2023-06-14T11:28:36;101735.53;;;27.49;26.44
79791;BME280;69278;52.220;5.172;2023-06-14T11:31:04;101736.28;;;27.56;26.45
79791;BME280;69278;52.220;5.172;2023-06-14T11:33:31;101727.03;;;27.64;26.28
79791;BME280;69278;52.220;5.172;2023-06-14T11:35:57;101730.88;;;27.75;26.45
79791;BME280;69278;52.220;5.172;2023-06-14T11:38:25;101739.09;;;27.68;26.19
79791;BME280;69278;52.220;5.172;2023-06-14T11:40:52;101728.47;;;27.67;25.96
79791;BME280;69278;52.220;5.172;2023-06-14T11:43:18;101732.25;;;27.66;26.01
79791;BME280;69278;52.220;5.172;2023-06-14T11:45:48;101718.84;;;27.71;25.24
79791;BME280;69278;52.220;5.172;2023-06-14T11:48:42;101731.53;;;27.88;25.42
79791;BME280;69278;52.220;5.172;2023-06-14T11:51:08;101735.13;;;28.00;25.66
79791;BME280;69278;52.220;5.172;2023-06-14T11:53:35;101730.94;;;28.04;25.80
79791;BME280;69278;52.220;5.172;2023-06-14T11:56:02;101734.22;;;28.06;25.78
79791;BME280;69278;52.220;5.172;2023-06-14T11:58:29;101713.41;;;28.07;26.20
79791;BME280;69278;52.220;5.172;2023-06-14T12:00:56;101716.50;;;27.92;25.48
79791;BME280;69278;52.220;5.172;2023-06-14T12:03:24;101742.13;;;28.08;25.84
79791;BME280;69278;52.220;5.172;2023-06-14T12:06:02;101712.44;;;28.01;25.97
79791;BME280;69278;52.220;5.172;2023-06-14T12:08:33;101736.06;;;28.24;25.37
79791;BME280;69278;52.220;5.172;2023-06-14T12:11:12;101705.56;;;27.99;25.54
79791;BME280;69278;52.220;5.172;2023-06-14T12:13:41;101723.72;;;28.40;25.24
79791;BME280;69278;52.220;5.172;2023-06-14T12:16:08;101724.28;;;28.30;25.18
79791;BME280;69278;52.220;5.172;2023-06-14T12:18:37;101735.03;;;28.37;25.07
79791;BME280;69278;52.220;5.172;2023-06-14T12:21:05;101735.78;;;28.44;25.05
79791;BME280;69278;52.220;5.172;2023-06-14T12:23:48;101734.66;;;28.74;25.00
79791;BME280;69278;52.220;5.172;2023-06-14T12:26:17;101712.28;;;28.79;24.38
79791;BME280;69278;52.220;5.172;2023-06-14T12:28:45;101733.84;;;28.97;24.34
79791;BME280;69278;52.220;5.172;2023-06-14T12:31:13;101724.88;;;29.43;24.10
79791;BME280;69278;52.220;5.172;2023-06-14T12:33:41;101729.75;;;29.69;23.36
79791;BME280;69278;52.220;5.172;2023-06-14T12:36:08;101730.41;;;30.16;23.39
79791;BME280;69278;52.220;5.172;2023-06-14T12:38:36;101723.09;;;30.61;22.62
79791;BME280;69278;52.220;5.172;2023-06-14T12:41:03;101724.06;;;30.72;21.91
79791;BME280;69278;52.220;5.172;2023-06-14T12:43:30;101726.84;;;31.10;21.52
79791;BME280;69278;52.220;5.172;2023-06-14T12:45:56;101727.88;;;31.04;21.58
79791;BME280;69278;52.220;5.172;2023-06-14T12:48:23;101697.03;;;30.99;21.35
79791;BME280;69278;52.220;5.172;2023-06-14T12:50:50;101725.28;;;31.53;20.86
79791;BME280;69278;52.220;5.172;2023-06-14T12:53:16;101734.47;;;31.68;19.98
79791;BME280;69278;52.220;5.172;2023-06-14T12:55:43;101731.97;;;31.88;20.42
79791;BME280;69278;52.220;5.172;2023-06-14T12:58:10;101733.16;;;31.97;19.54
79791;BME280;69278;52.220;5.172;2023-06-14T13:00:39;101735.72;;;32.04;20.05
79791;BME280;69278;52.220;5.172;2023-06-14T13:03:06;101736.91;;;32.13;20.01
79791;BME280;69278;52.220;5.172;2023-06-14T13:05:32;101736.16;;;32.23;19.81